Time;durP1;ratioP1;P1;durP2;ratioP2;P2;SDS_P1;SDS_P2;PMS_P1;PMS_P2;Temp;Humidity;BMP_temperature;BMP_pressure;BME280_temperature;BME280_humidity;BME280_pressure;Samples;Min_cycle;Max_cycle;Signal;HPM_P1;HPM_P2
2021/06/01 00:02:01;;;;;;;5.72;1.90;;;17.60;61.00;;;;;;5047295;28;20037;-85
2021/06/01 00:04:27;;;;;;;3.70;2.05;;;17.60;61.10;;;;;;5050524;28;20496;-84
2021/06/01 00:06:52;;;;;;;3.97;1.80;;;17.60;61.00;;;;;;5050570;28;20452;-85
2021/06/01 00:09:21;;;;;;;4.30;2.08;;;17.60;60.80;;;;;;5050129;28;20057;-85
2021/06/01 00:11:47;;;;;;;4.97;2.33;;;17.60;61.00;;;;;;5050495;28;20112;-86
2021/06/01 00:14:14;;;;;;;6.07;1.95;;;17.50;61.40;;;;;;5049065;28;20040;-85
2021/06/01 00:16:40;;;;;;;4.45;1.90;;;17.50;61.50;;;;;;5051174;28;20079;-81
2021/06/01 00:19:08;;;;;;;6.97;2.20;;;17.50;61.70;;;;;;5049640;28;20040;-84
2021/06/01 00:21:35;;;;;;;3.58;1.92;;;17.50;61.90;;;;;;5048895;28;20029;-84
2021/06/01 00:24:01;;;;;;;4.53;1.92;;;17.40;62.00;;;;;;5050538;28;20018;-85
2021/06/01 00:26:27;;;;;;;3.88;1.75;;;17.40;62.40;;;;;;5048894;28;20029;-84
2021/06/01 00:28:53;;;;;;;6.10;2.03;;;17.40;62.50;;;;;;5047195;28;20386;-86
2021/06/01 00:31:19;;;;;;;7.45;2.50;;;17.40;62.50;;;;;;5049001;28;20022;-84
2021/06/01 00:33:44;;;;;;;5.20;2.38;;;17.30;62.70;;;;;;5048024;28;20032;-84
2021/06/01 00:36:10;;;;;;;5.97;2.40;;;17.30;62.70;;;;;;5036647;28;20049;-84
2021/06/01 00:38:36;;;;;;;5.78;2.40;;;17.20;62.70;;;;;;5035801;28;20034;-84
2021/06/01 00:41:03;;;;;;;5.70;2.15;;;17.20;62.80;;;;;;5034749;28;20029;-84
2021/06/01 00:43:29;;;;;;;4.68;2.35;;;17.20;62.80;;;;;;5036171;28;20103;-82
2021/06/01 00:45:55;;;;;;;6.03;2.38;;;17.10;63.30;;;;;;5036198;28;20501;-83
2021/06/01 00:48:20;;;;;;;4.15;2.00;;;17.10;63.20;;;;;;5035533;28;20390;-82
2021/06/01 00:50:46;;;;;;;7.10;2.50;;;17.10;63.40;;;;;;5033874;28;20071;-83
2021/06/01 00:53:12;;;;;;;6.07;2.17;;;17.10;63.60;;;;;;5033160;28;20025;-83
2021/06/01 00:55:37;;;;;;;4.97;2.45;;;17.00;63.80;;;;;;5033072;28;20116;-82
2021/06/01 00:58:03;;;;;;;5.25;2.60;;;17.10;64.10;;;;;;5033042;28;20032;-83
2021/06/01 01:01:04;;;;;;;5.13;2.35;;;17.00;64.20;;;;;;5032333;28;20026;-83
2021/06/01 01:03:31;;;;;;;6.80;2.30;;;16.80;64.40;;;;;;5032872;28;20064;-85
2021/06/01 01:06:04;;;;;;;3.88;2.10;;;16.80;65.10;;;;;;5032865;28;20138;-85
2021/06/01 01:11:40;;;;;;;4.57;2.20;;;16.80;65.80;;;;;;5033836;28;20018;-85
2021/06/01 01:14:11;;;;;;;5.22;2.70;;;16.70;65.80;;;;;;5032759;28;20061;-86
2021/06/01 01:16:40;;;;;;;7.07;2.65;;;16.70;65.90;;;;;;5032836;28;20421;-86
2021/06/01 01:19:13;;;;;;;4.72;2.15;;;16.70;66.40;;;;;;5033371;28;20025;-85
2021/06/01 01:21:42;;;;;;;6.88;2.33;;;16.60;66.30;;;;;;5033939;28;20032;-86
2021/06/01 01:24:32;;;;;;;5.75;2.20;;;16.50;67.30;;;;;;5032596;28;20034;-86
2021/06/01 01:27:07;;;;;;;5.85;2.35;;;16.40;67.60;;;;;;5033855;28;20281;-86
2021/06/01 01:29:40;;;;;;;5.22;2.42;;;16.30;67.20;;;;;;5033212;28;20053;-85
2021/06/01 01:32:11;;;;;;;6.97;2.20;;;16.30;67.60;;;;;;5032543;28;20026;-86
2021/06/01 01:34:39;;;;;;;4.63;2.35;;;16.30;68.00;;;;;;5032126;28;20034;-85
2021/06/01 01:37:07;;;;;;;4.93;2.38;;;16.20;68.20;;;;;;5032523;28;20029;-85
2021/06/01 01:39:40;;;;;;;5.82;2.47;;;16.20;68.70;;;;;;5033279;28;20101;-85
2021/06/01 01:42:06;;;;;;;4.20;2.17;;;16.10;68.80;;;;;;5032103;28;20045;-86
2021/06/01 01:44:37;;;;;;;4.30;2.40;;;16.10;69.00;;;;;;5033449;28;20056;-86
2021/06/01 01:48:56;;;;;;;4.88;2.40;;;16.10;69.10;;;;;;5032444;28;20113;-85
2021/06/01 01:49:50;;;;;;;5.60;2.45;;;16.10;69.40;;;;;;5032712;28;20490;-85
2021/06/01 01:52:16;;;;;;;7.75;2.95;;;16.10;69.60;;;;;;5032271;28;20056;-86
2021/06/01 01:54:42;;;;;;;4.90;2.00;;;16.00;69.90;;;;;;5033269;28;20025;-83
2021/06/01 01:57:11;;;;;;;6.75;2.65;;;16.00;69.80;;;;;;5031929;28;20026;-86
2021/06/01 01:59:37;;;;;;;4.88;2.50;;;15.90;70.20;;;;;;5032653;28;20029;-85
2021/06/01 02:02:08;;;;;;;5.40;2.60;;;15.90;70.80;;;;;;5031936;28;20025;-86
2021/06/01 02:04:34;;;;;;;6.78;2.80;;;16.00;70.10;;;;;;5033121;28;20478;-86
2021/06/01 02:07:00;;;;;;;3.78;2.17;;;16.00;69.60;;;;;;5031670;28;20052;-86
2021/06/01 02:09:26;;;;;;;8.20;2.70;;;16.10;70.30;;;;;;5032863;28;20100;-85
2021/06/01 02:11:51;;;;;;;4.32;2.53;;;16.00;69.20;;;;;;5031557;28;20040;-86
2021/06/01 02:14:19;;;;;;;4.40;2.30;;;16.00;70.40;;;;;;5032892;28;20029;-86
2021/06/01 02:16:45;;;;;;;4.38;2.30;;;16.00;70.80;;;;;;5031633;28;20129;-86
2021/06/01 02:19:14;;;;;;;4.50;2.30;;;15.90;70.60;;;;;;5030954;28;20069;-85
2021/06/01 02:24:30;;;;;;;4.45;2.50;;;15.80;71.50;;;;;;5032950;28;20029;-85
2021/06/01 02:27:23;;;;;;;8.27;2.58;;;15.80;71.90;;;;;;5031288;28;20474;-85
2021/06/01 02:30:00;;;;;;;4.47;2.70;;;15.70;71.80;;;;;;5030811;28;20437;-86
2021/06/01 02:32:39;;;;;;;5.43;2.70;;;15.70;71.60;;;;;;5031098;28;20049;-85
2021/06/01 02:35:14;;;;;;;4.88;2.58;;;15.80;71.60;;;;;;5032334;28;20033;-86
2021/06/01 02:37:44;;;;;;;4.72;2.30;;;15.80;71.50;;;;;;5031231;28;20021;-85
2021/06/01 02:40:11;;;;;;;9.63;2.70;;;15.70;71.40;;;;;;5030532;28;20119;-85
2021/06/01 02:42:41;;;;;;;7.68;2.72;;;15.70;71.70;;;;;;5032157;28;20026;-86
2021/06/01 02:45:09;;;;;;;5.93;2.65;;;15.70;71.70;;;;;;5032279;28;20459;-86
2021/06/01 02:47:35;;;;;;;5.82;2.92;;;15.70;71.90;;;;;;5032279;28;20077;-85
2021/06/01 02:50:03;;;;;;;5.32;2.30;;;15.60;71.50;;;;;;5029517;28;20041;-85
2021/06/01 02:52:30;;;;;;;5.65;2.42;;;15.60;71.40;;;;;;5030012;28;20036;-86
2021/06/01 02:54:55;;;;;;;6.32;2.95;;;15.60;71.70;;;;;;5032118;28;20067;-86
2021/06/01 02:57:22;;;;;;;4.88;2.50;;;15.50;71.80;;;;;;5030636;28;20060;-86
2021/06/01 02:59:48;;;;;;;5.78;2.67;;;15.50;72.00;;;;;;5031683;28;20545;-85
2021/06/01 03:02:13;;;;;;;5.32;2.63;;;15.50;72.20;;;;;;5032128;28;20057;-86
2021/06/01 03:04:50;;;;;;;5.53;2.65;;;15.50;72.40;;;;;;5032061;28;20053;-85
2021/06/01 03:07:16;;;;;;;3.95;2.08;;;15.50;73.50;;;;;;5031102;28;20510;-86
2021/06/01 03:09:41;;;;;;;5.18;2.80;;;15.40;73.30;;;;;;5030098;28;20026;-86
2021/06/01 03:12:09;;;;;;;6.32;2.90;;;15.40;73.40;;;;;;5030696;28;20026;-86
2021/06/01 03:14:34;;;;;;;5.60;2.92;;;15.40;73.60;;;;;;5030761;28;20060;-85
2021/06/01 03:17:00;;;;;;;5.57;2.70;;;15.40;73.70;;;;;;5030814;28;20025;-83
2021/06/01 03:19:25;;;;;;;6.55;3.00;;;15.40;74.20;;;;;;5031307;28;20485;-84
2021/06/01 03:21:51;;;;;;;6.85;4.25;;;15.40;75.10;;;;;;5030676;28;20029;-85
2021/06/01 03:24:17;;;;;;;6.82;3.40;;;15.30;75.00;;;;;;5031570;28;20436;-86
2021/06/01 03:26:42;;;;;;;6.03;3.30;;;15.30;75.40;;;;;;5030674;28;20360;-86
2021/06/01 03:29:08;;;;;;;5.32;3.10;;;15.20;75.60;;;;;;5030042;28;20040;-85
2021/06/01 03:31:33;;;;;;;7.68;3.67;;;15.10;75.90;;;;;;5030379;28;20052;-85
2021/06/01 03:33:59;;;;;;;5.68;3.10;;;15.10;76.20;;;;;;5031791;28;20084;-85
2021/06/01 03:36:25;;;;;;;5.25;2.67;;;14.90;77.00;;;;;;5030370;28;20068;-86
2021/06/01 03:38:51;;;;;;;5.78;3.25;;;14.90;77.70;;;;;;5030110;28;20033;-86
2021/06/01 03:41:18;;;;;;;6.68;3.17;;;14.80;78.30;;;;;;5030261;28;20448;-85
2021/06/01 03:43:43;;;;;;;7.13;3.03;;;14.80;78.70;;;;;;5031729;28;20026;-85
2021/06/01 03:46:12;;;;;;;5.38;2.90;;;14.80;78.40;;;;;;5033964;28;20101;-86
2021/06/01 03:48:38;;;;;;;6.30;3.00;;;14.80;78.80;;;;;;5031181;28;20029;-85
2021/06/01 03:51:04;;;;;;;7.20;3.33;;;14.80;79.20;;;;;;5029824;28;20025;-85
2021/06/01 03:53:29;;;;;;;8.20;3.42;;;14.80;79.00;;;;;;5030176;28;20022;-87
2021/06/01 03:55:55;;;;;;;6.88;3.33;;;14.70;79.00;;;;;;5031751;28;20318;-86
2021/06/01 03:58:21;;;;;;;7.13;3.00;;;14.70;79.30;;;;;;5031626;28;20026;-86
2021/06/01 04:00:47;;;;;;;8.65;3.67;;;14.70;80.20;;;;;;5031028;28;20466;-85
2021/06/01 04:03:12;;;;;;;7.00;3.40;;;14.60;80.80;;;;;;5030211;28;20025;-85
2021/06/01 04:05:38;;;;;;;6.43;3.50;;;14.60;81.10;;;;;;5030099;28;20481;-85
2021/06/01 04:08:06;;;;;;;5.40;3.13;;;14.60;81.10;;;;;;5030079;28;20021;-86
2021/06/01 04:10:32;;;;;;;6.53;3.75;;;14.60;81.50;;;;;;5033510;28;20013;-85
2021/06/01 04:12:58;;;;;;;6.57;3.50;;;14.60;81.50;;;;;;5035213;28;20026;-85
2021/06/01 04:15:23;;;;;;;8.75;3.63;;;14.60;81.60;;;;;;5033945;28;20052;-86
2021/06/01 04:17:49;;;;;;;7.65;4.18;;;14.60;81.80;;;;;;5034024;28;20072;-85
2021/06/01 04:20:15;;;;;;;7.70;4.13;;;14.70;81.10;;;;;;5034550;28;20029;-85
2021/06/01 04:22:41;;;;;;;7.35;3.50;;;14.70;80.90;;;;;;5034854;28;20056;-85
2021/06/01 04:25:07;;;;;;;7.97;3.53;;;14.70;80.70;;;;;;5034951;28;20025;-85
2021/06/01 04:27:33;;;;;;;8.40;3.70;;;14.70;80.90;;;;;;5033734;28;20025;-85
2021/06/01 04:29:59;;;;;;;6.72;3.38;;;14.70;80.80;;;;;;5034284;28;20025;-85
2021/06/01 04:32:37;;;;;;;6.53;3.38;;;14.80;81.20;;;;;;5033725;28;20525;-86
2021/06/01 04:35:05;;;;;;;5.60;3.45;;;14.80;82.00;;;;;;5034871;28;20038;-86
2021/06/01 04:37:33;;;;;;;6.50;3.57;;;14.70;82.80;;;;;;5035233;28;20308;-86
2021/06/01 04:40:09;;;;;;;8.90;4.13;;;14.80;82.60;;;;;;5032983;28;20026;-85
2021/06/01 04:42:35;;;;;;;8.65;3.45;;;14.80;82.20;;;;;;5017493;28;20066;-85
2021/06/01 04:45:01;;;;;;;9.82;3.92;;;14.80;81.90;;;;;;5034573;28;20114;-85
2021/06/01 04:47:26;;;;;;;6.82;3.55;;;14.80;81.90;;;;;;5034828;28;20089;-86
2021/06/01 04:49:52;;;;;;;11.27;4.55;;;14.90;82.10;;;;;;5033426;28;20536;-86
2021/06/01 04:52:17;;;;;;;7.32;3.78;;;15.00;81.80;;;;;;5034905;28;20052;-86
2021/06/01 04:54:43;;;;;;;7.85;3.78;;;15.00;81.90;;;;;;5033283;28;20036;-86
2021/06/01 04:57:09;;;;;;;6.93;3.80;;;15.00;81.80;;;;;;5033543;28;20071;-86
2021/06/01 04:59:36;;;;;;;8.40;3.67;;;15.00;81.50;;;;;;5032827;28;20025;-86
2021/06/01 05:02:04;;;;;;;11.18;4.22;;;15.20;81.80;;;;;;5032902;28;20021;-86
2021/06/01 05:04:32;;;;;;;10.20;4.03;;;15.30;82.00;;;;;;5032828;28;20552;-87
2021/06/01 05:06:58;;;;;;;8.52;4.20;;;15.30;82.40;;;;;;5016623;28;20033;-86
2021/06/01 05:09:25;;;;;;;8.25;3.95;;;15.40;80.90;;;;;;5032301;28;20463;-86
2021/06/01 05:11:51;;;;;;;7.68;3.55;;;15.50;81.00;;;;;;5032856;28;20512;-87
2021/06/01 05:14:17;;;;;;;6.85;3.80;;;15.50;81.00;;;;;;5033924;28;20029;-86
2021/06/01 05:16:42;;;;;;;8.63;4.03;;;15.60;79.90;;;;;;5032658;28;20466;-86
2021/06/01 05:19:08;;;;;;;10.65;3.92;;;15.50;79.60;;;;;;5032118;28;20041;-86
2021/06/01 05:21:34;;;;;;;6.47;3.80;;;15.60;80.20;;;;;;5032510;28;20504;-86
2021/06/01 05:23:59;;;;;;;8.30;3.85;;;15.70;80.00;;;;;;5032659;28;20025;-87
2021/06/01 05:26:25;;;;;;;7.70;3.85;;;15.70;80.40;;;;;;5033701;28;20212;-86
2021/06/01 05:28:51;;;;;;;7.80;3.40;;;15.70;80.10;;;;;;5033422;28;20052;-87
2021/06/01 05:33:48;;;;;;;8.00;3.60;;;15.90;78.80;;;;;;5033948;28;20046;-86
2021/06/01 05:36:14;;;;;;;10.80;4.15;;;16.00;79.10;;;;;;5069756;22;20041;-87
2021/06/01 05:38:40;;;;;;;7.68;3.50;;;16.00;79.30;;;;;;5053716;28;20465;-87
2021/06/01 05:41:05;;;;;;;8.38;3.50;;;16.00;79.80;;;;;;5052056;28;20051;-87
2021/06/01 05:43:32;;;;;;;6.88;3.83;;;16.10;79.70;;;;;;5052412;28;20043;-86
2021/06/01 05:45:58;;;;;;;7.63;3.58;;;16.20;78.80;;;;;;5052708;28;20025;-87
2021/06/01 05:48:24;;;;;;;7.10;3.50;;;16.20;78.10;;;;;;5052322;28;20040;-87
2021/06/01 05:50:50;;;;;;;6.25;2.92;;;16.30;75.90;;;;;;5051760;28;20021;-87
2021/06/01 05:53:17;;;;;;;10.93;3.20;;;16.30;72.80;;;;;;5053521;28;20094;-86
2021/06/01 05:55:44;;;;;;;8.20;3.05;;;16.40;72.90;;;;;;5052174;28;20093;-87
2021/06/01 05:58:10;;;;;;;5.57;3.15;;;16.40;74.10;;;;;;5052180;28;20079;-87
2021/06/01 06:00:36;;;;;;;6.15;2.92;;;16.40;74.30;;;;;;5052711;28;20058;-87
2021/06/01 06:03:02;;;;;;;6.10;3.35;;;16.50;74.10;;;;;;5053299;28;20028;-86
2021/06/01 06:05:29;;;;;;;7.90;3.40;;;16.60;74.10;;;;;;5053154;28;20096;-87
2021/06/01 06:07:54;;;;;;;8.00;2.97;;;16.60;74.00;;;;;;5051797;28;20047;-87
2021/06/01 06:10:20;;;;;;;5.78;3.50;;;16.60;74.70;;;;;;5051491;28;20021;-87
2021/06/01 06:12:46;;;;;;;6.10;3.13;;;16.60;74.60;;;;;;5053018;28;20804;-87
2021/06/01 06:15:15;;;;;;;9.82;3.33;;;16.70;74.10;;;;;;5052800;28;20021;-87
2021/06/01 06:18:00;;;;;;;8.02;3.30;;;16.70;74.50;;;;;;5051646;28;20107;-87
2021/06/01 06:20:26;;;;;;;8.65;4.47;;;16.70;74.50;;;;;;5051309;28;20025;-87
2021/06/01 06:22:51;;;;;;;9.88;4.28;;;16.80;74.50;;;;;;5051456;28;20032;-87
2021/06/01 06:25:17;;;;;;;5.15;3.42;;;16.80;75.40;;;;;;5051575;28;20025;-87
2021/06/01 06:27:42;;;;;;;4.60;2.80;;;16.90;74.10;;;;;;5051951;28;20024;-87
2021/06/01 06:30:10;;;;;;;7.13;3.10;;;16.90;73.70;;;;;;5052303;28;20355;-87
2021/06/01 06:32:36;;;;;;;9.10;3.10;;;16.90;73.70;;;;;;5050785;28;20040;-87
2021/06/01 06:35:03;;;;;;;8.57;3.17;;;16.90;74.10;;;;;;5050962;28;20558;-87
2021/06/01 06:37:29;;;;;;;7.78;3.22;;;17.00;74.10;;;;;;5051371;28;20033;-87
2021/06/01 06:39:55;;;;;;;6.85;3.10;;;17.00;74.50;;;;;;5052165;28;20529;-87
2021/06/01 06:42:21;;;;;;;8.90;3.20;;;17.10;74.50;;;;;;5051485;28;20095;-87
2021/06/01 06:44:51;;;;;;;4.28;2.40;;;17.10;73.20;;;;;;5051091;28;20389;-87
2021/06/01 06:49:50;;;;;;;8.93;3.42;;;17.20;72.00;;;;;;5052070;28;20115;-87
2021/06/01 06:52:15;;;;;;;8.70;3.10;;;17.20;70.60;;;;;;5050836;28;20030;-87
2021/06/01 06:54:41;;;;;;;8.13;3.40;;;17.30;70.20;;;;;;5051109;28;20021;-87
2021/06/01 06:57:08;;;;;;;5.47;2.47;;;17.30;70.00;;;;;;5050996;28;20485;-87
2021/06/01 06:59:33;;;;;;;4.32;2.15;;;17.30;69.60;;;;;;5050636;28;20079;-87
2021/06/01 07:01:59;;;;;;;7.55;2.35;;;17.40;69.30;;;;;;5051987;28;20025;-87
2021/06/01 07:04:25;;;;;;;4.20;2.13;;;17.40;70.00;;;;;;5050722;28;20035;-87
2021/06/01 07:06:53;;;;;;;7.07;2.78;;;17.40;69.20;;;;;;5051897;28;20074;-87
2021/06/01 07:09:18;;;;;;;7.50;2.60;;;17.50;69.10;;;;;;5050675;28;20024;-87
2021/06/01 07:11:44;;;;;;;12.52;2.80;;;17.50;69.00;;;;;;5050724;28;20397;-87
2021/06/01 07:14:10;;;;;;;5.00;2.55;;;17.50;68.80;;;;;;5053364;28;20056;-87
2021/06/01 07:16:36;;;;;;;10.38;4.03;;;17.50;68.70;;;;;;5050684;28;20550;-87
2021/06/01 07:19:02;;;;;;;11.38;5.00;;;17.60;68.20;;;;;;5050215;28;20071;-87
2021/06/01 07:21:28;;;;;;;9.55;4.63;;;17.60;68.50;;;;;;5052414;28;20029;-86
2021/06/01 07:23:54;;;;;;;7.63;3.13;;;17.60;68.70;;;;;;5050603;28;20492;-87
2021/06/01 07:26:20;;;;;;;9.38;4.93;;;17.70;69.20;;;;;;5051921;28;20052;-87
2021/06/01 07:28:46;;;;;;;11.45;4.30;;;17.70;69.60;;;;;;5051863;28;20025;-87
2021/06/01 07:31:14;;;;;;;6.15;3.58;;;17.70;69.50;;;;;;5049931;28;20017;-87
2021/06/01 07:33:40;;;;;;;3.65;2.53;;;17.70;69.40;;;;;;5050621;28;20052;-87
2021/06/01 07:36:06;;;;;;;4.85;2.13;;;17.70;69.20;;;;;;5051688;28;20072;-87
2021/06/01 07:38:32;;;;;;;3.80;1.88;;;17.80;69.30;;;;;;5050480;28;20515;-87
2021/06/01 07:40:58;;;;;;;5.25;2.08;;;17.80;69.50;;;;;;5050690;28;20029;-87
2021/06/01 07:43:23;;;;;;;4.45;2.25;;;17.80;69.70;;;;;;5050273;28;20061;-87
2021/06/01 07:45:49;;;;;;;8.43;2.40;;;17.80;69.90;;;;;;5053643;28;20388;-87
2021/06/01 07:48:15;;;;;;;5.60;2.42;;;17.80;69.70;;;;;;5055921;28;20025;-87
2021/06/01 07:50:40;;;;;;;5.88;2.28;;;17.90;69.60;;;;;;5054146;28;20059;-87
2021/06/01 07:53:06;;;;;;;4.72;2.30;;;17.90;69.40;;;;;;5054553;28;20029;-87
2021/06/01 07:55:32;;;;;;;9.55;3.10;;;17.90;69.80;;;;;;5054352;28;20025;-87
2021/06/01 07:57:58;;;;;;;5.35;2.25;;;18.00;69.40;;;;;;5054432;28;20025;-86
2021/06/01 08:00:26;;;;;;;6.80;2.50;;;18.00;69.30;;;;;;5055193;28;20032;-87
2021/06/01 08:02:51;;;;;;;6.03;2.42;;;18.00;70.00;;;;;;5054203;28;20551;-87
2021/06/01 08:05:19;;;;;;;7.43;2.63;;;18.00;69.20;;;;;;5054080;28;20025;-87
2021/06/01 08:07:46;;;;;;;10.27;3.10;;;18.10;68.80;;;;;;5055463;28;20470;-87
2021/06/01 08:10:15;;;;;;;6.00;2.47;;;18.20;68.70;;;;;;5054195;28;20385;-87
2021/06/01 08:12:41;;;;;;;5.68;2.30;;;18.20;68.40;;;;;;5053986;28;20102;-87
2021/06/01 08:15:07;;;;;;;5.75;2.20;;;18.20;68.20;;;;;;5055219;28;20056;-87
2021/06/01 08:17:33;;;;;;;3.85;2.00;;;18.30;68.40;;;;;;5053887;28;20031;-87
2021/06/01 08:20:09;;;;;;;5.45;2.08;;;18.30;68.30;;;;;;5054936;28;20104;-87
2021/06/01 08:22:35;;;;;;;4.72;2.15;;;18.30;67.10;;;;;;5053901;28;20032;-87
2021/06/01 08:25:01;;;;;;;4.72;2.22;;;18.40;67.00;;;;;;5055147;28;20432;-87
2021/06/01 08:27:28;;;;;;;3.22;2.13;;;18.40;64.70;;;;;;5054995;28;20060;-87
2021/06/01 08:29:55;;;;;;;5.72;1.98;;;18.40;64.30;;;;;;5054573;28;20013;-87
2021/06/01 08:32:20;;;;;;;2.83;2.10;;;18.40;63.60;;;;;;5053513;28;20034;-87
2021/06/01 08:34:46;;;;;;;4.55;2.30;;;18.50;64.00;;;;;;5053421;28;20025;-87
2021/06/01 08:37:12;;;;;;;4.18;2.08;;;18.50;65.30;;;;;;5053742;28;20025;-87
2021/06/01 08:39:37;;;;;;;3.70;2.05;;;18.60;64.90;;;;;;5054550;28;20025;-87
2021/06/01 08:42:03;;;;;;;5.07;2.00;;;18.60;64.40;;;;;;5054776;28;20387;-87
2021/06/01 08:44:29;;;;;;;4.03;2.15;;;18.60;64.00;;;;;;5054540;28;20127;-87
2021/06/01 08:46:56;;;;;;;3.63;2.03;;;18.60;63.20;;;;;;5053330;28;20051;-87
2021/06/01 08:49:22;;;;;;;4.05;2.17;;;18.60;62.50;;;;;;5054365;28;20017;-87
2021/06/01 08:51:49;;;;;;;3.58;2.38;;;18.60;61.50;;;;;;5055202;28;20140;-87
2021/06/01 08:54:16;;;;;;;2.50;1.83;;;18.70;61.70;;;;;;5054619;28;20044;-87
2021/06/01 08:56:43;;;;;;;3.60;2.00;;;18.70;60.10;;;;;;5053973;28;20025;-86
2021/06/01 08:59:09;;;;;;;3.13;1.60;;;18.70;58.80;;;;;;5052848;28;20029;-87
2021/06/01 09:01:35;;;;;;;3.33;2.13;;;18.80;58.10;;;;;;5053021;28;20029;-87
2021/06/01 09:04:08;;;;;;;3.05;1.83;;;18.80;57.80;;;;;;5054446;28;20032;-87
2021/06/01 09:22:44;;;;;;;8.45;2.92;;;19.10;57.80;;;;;;5078184;28;20028;-87
2021/06/01 09:27:57;;;;;;;6.78;2.50;;;19.20;57.90;;;;;;5074176;28;20021;-87
2021/06/01 09:30:41;;;;;;;3.22;2.20;;;19.30;57.00;;;;;;5062801;28;20029;-87
2021/06/01 09:33:14;;;;;;;3.15;2.00;;;19.30;56.70;;;;;;5053046;28;20112;-87
2021/06/01 09:35:44;;;;;;;4.40;2.20;;;19.30;57.10;;;;;;5054591;28;20033;-87
2021/06/01 09:38:10;;;;;;;2.95;2.10;;;19.30;57.00;;;;;;5053212;28;20032;-87
2021/06/01 09:40:39;;;;;;;2.80;1.95;;;19.30;57.30;;;;;;5053812;28;20031;-87
2021/06/01 09:43:16;;;;;;;4.40;2.30;;;19.30;56.90;;;;;;5053230;28;20059;-87
2021/06/01 09:45:42;;;;;;;3.38;2.08;;;19.40;57.10;;;;;;5052940;28;20029;-87
2021/06/01 09:48:10;;;;;;;4.93;2.33;;;19.30;56.90;;;;;;5057962;28;20484;-87
2021/06/01 09:50:54;;;;;;;2.78;1.95;;;19.30;58.00;;;;;;5058085;28;20029;-87
2021/06/01 09:53:30;;;;;;;4.40;2.05;;;19.50;57.10;;;;;;5072958;28;20037;-87
2021/06/01 09:55:56;;;;;;;8.35;2.92;;;19.50;56.90;;;;;;5076421;28;20031;-87
2021/06/01 09:58:33;;;;;;;4.13;2.47;;;19.60;56.80;;;;;;5075141;28;20025;-87
2021/06/01 10:01:01;;;;;;;3.80;2.20;;;19.60;56.00;;;;;;5072820;28;20009;-87
2021/06/01 10:03:35;;;;;;;2.60;1.85;;;19.60;56.10;;;;;;5064096;28;20104;-87
2021/06/01 10:06:01;;;;;;;2.47;2.08;;;19.60;56.30;;;;;;5052878;28;20021;-87
2021/06/01 10:08:28;;;;;;;3.25;1.73;;;19.60;56.50;;;;;;5051918;28;20120;-87
2021/06/01 10:10:55;;;;;;;3.03;2.22;;;19.60;56.90;;;;;;5051852;28;20126;-87
2021/06/01 10:13:23;;;;;;;3.03;1.80;;;19.60;57.00;;;;;;5052055;28;20168;-87
2021/06/01 10:15:52;;;;;;;4.13;2.35;;;19.60;56.60;;;;;;5053432;28;20021;-87
2021/06/01 10:18:19;;;;;;;4.00;2.00;;;19.70;56.60;;;;;;5053066;28;20092;-87
2021/06/01 10:20:46;;;;;;;2.95;1.92;;;19.70;56.10;;;;;;5052290;28;20035;-87
2021/06/01 10:23:14;;;;;;;3.63;2.00;;;19.70;56.20;;;;;;5052598;28;20025;-87
2021/06/01 10:25:40;;;;;;;2.40;1.70;;;19.80;54.10;;;;;;5052950;28;20100;-87
2021/06/01 10:28:08;;;;;;;2.83;1.80;;;19.80;54.70;;;;;;5052806;28;20036;-87
2021/06/01 10:30:38;;;;;;;3.10;2.13;;;19.80;54.30;;;;;;5053039;28;20013;-86
2021/06/01 10:33:10;;;;;;;3.92;2.00;;;19.80;54.30;;;;;;5053785;28;20025;-86
2021/06/01 10:35:40;;;;;;;2.65;1.85;;;19.80;54.00;;;;;;5053288;28;20044;-87
2021/06/01 10:52:13;;;;;;;;;;;19.90;53.70;;;;;;5053380;28;20263;-87
2021/06/01 10:54:39;;;;;;;3.58;2.05;;;19.90;54.90;;;;;;5051624;28;20392;-87
2021/06/01 10:57:06;;;;;;;2.92;2.10;;;19.90;55.30;;;;;;5052957;28;20021;-87
2021/06/01 11:02:20;;;;;;;5.25;2.50;;;20.00;54.20;;;;;;5052815;28;20028;-87
2021/06/01 11:05:00;;;;;;;4.13;2.40;;;20.10;53.80;;;;;;5050651;28;20032;-87
2021/06/01 11:07:41;;;;;;;4.07;2.17;;;20.10;55.10;;;;;;5052223;28;20406;-87
2021/06/01 11:10:07;;;;;;;4.40;2.20;;;20.10;55.00;;;;;;5050470;28;20021;-87
2021/06/01 11:12:36;;;;;;;4.45;1.92;;;20.10;54.40;;;;;;5050783;28;20021;-87
2021/06/01 11:15:20;;;;;;;3.42;1.92;;;20.10;54.60;;;;;;5052105;28;20021;-87
2021/06/01 11:17:46;;;;;;;4.75;2.70;;;20.20;55.10;;;;;;5052087;28;20044;-87
2021/06/01 11:20:20;;;;;;;3.95;2.03;;;20.30;55.30;;;;;;5051633;28;20025;-87
2021/06/01 11:33:41;;;;;;;3.25;2.00;;;20.40;53.60;;;;;;5052170;28;20082;-87
2021/06/01 11:36:13;;;;;;;2.97;1.90;;;20.40;53.40;;;;;;5077451;22;20052;-85
2021/06/01 11:38:58;;;;;;;2.53;1.88;;;20.40;53.80;;;;;;5057482;28;20013;-85
2021/06/01 11:44:28;;;;;;;3.55;2.00;;;20.40;54.40;;;;;;5056855;28;20109;-85
2021/06/01 11:47:16;;;;;;;4.15;2.05;;;20.50;54.20;;;;;;5054371;28;20028;-84
2021/06/01 11:52:27;;;;;;;3.40;1.90;;;20.70;53.00;;;;;;5056853;28;20050;-85
2021/06/01 11:54:53;;;;;;;4.90;1.98;;;20.60;53.20;;;;;;5056606;28;20029;-85
2021/06/01 11:57:32;;;;;;;2.35;1.70;;;20.60;53.00;;;;;;5054317;28;20548;-85
2021/06/01 12:02:51;;;;;;;2.85;1.92;;;20.80;53.20;;;;;;5056750;28;20097;-85
2021/06/01 12:19:02;;;;;;;3.10;2.20;;;21.10;52.90;;;;;;5055455;28;20091;-85
2021/06/01 12:21:38;;;;;;;3.38;2.35;;;21.30;51.60;;;;;;5055646;28;20028;-85
2021/06/01 12:24:14;;;;;;;4.43;2.00;;;21.50;50.70;;;;;;5056965;28;20100;-85
2021/06/01 12:27:27;;;;;;;2.53;1.80;;;21.50;50.70;;;;;;5056432;28;20595;-85
2021/06/01 12:32:22;;;;;;;4.32;2.20;;;21.60;51.00;;;;;;5060360;28;20039;-85
2021/06/01 12:43:06;;;;;;;2.67;2.03;;;22.00;49.10;;;;;;5064896;28;20088;-85
2021/06/01 12:45:50;;;;;;;3.47;1.83;;;22.10;49.20;;;;;;5062330;28;20044;-85
2021/06/01 13:31:09;;;;;;;4.93;2.10;;;21.90;50.20;;;;;;5058562;28;20083;-85
2021/06/01 13:48:46;;;;;;;2.60;1.92;;;22.00;49.30;;;;;;5059711;28;20047;-85
2021/06/01 13:50:59;;;;;;;2.03;1.70;;;22.10;49.70;;;;;;5055705;28;20037;-85
2021/06/01 13:56:00;;;;;;;3.20;1.98;;;22.30;49.80;;;;;;5058742;28;20025;-85
2021/06/01 14:15:24;;;;;;;5.85;2.25;;;24.00;48.70;;;;;;5046335;28;20423;-85
2021/06/01 15:23:29;;;;;;;4.53;2.17;;;26.20;45.30;;;;;;5056645;28;20040;-85
2021/06/01 15:49:26;;;;;;;3.72;2.33;;;24.70;47.30;;;;;;5054838;28;20405;-86
2021/06/01 15:52:10;;;;;;;4.68;2.30;;;24.50;47.50;;;;;;5054661;28;20032;-85
2021/06/01 16:14:15;;;;;;;4.97;2.65;;;24.00;47.40;;;;;;5061008;28;20064;-86
2021/06/01 16:43:42;;;;;;;5.70;2.20;;;23.70;46.80;;;;;;5054653;28;20032;-86
2021/06/01 17:13:20;;;;;;;4.03;2.10;;;23.90;46.40;;;;;;5054689;28;20080;-86
2021/06/01 17:15:53;;;;;;;2.97;1.80;;;23.80;46.20;;;;;;5052602;28;20025;-86
2021/06/01 17:23:53;;;;;;;3.38;2.10;;;23.60;46.90;;;;;;5054110;28;20051;-86
2021/06/01 17:37:27;;;;;;;2.85;1.80;;;23.20;48.00;;;;;;5046346;28;20033;-86
2021/06/01 17:39:53;;;;;;;4.30;1.88;;;23.20;48.10;;;;;;5056760;28;20025;-86
2021/06/01 17:42:21;;;;;;;3.63;1.70;;;23.10;48.00;;;;;;5056706;28;20035;-86
2021/06/01 17:44:50;;;;;;;3.53;1.65;;;23.10;48.20;;;;;;5058535;28;20017;-86
2021/06/01 17:47:24;;;;;;;3.42;1.85;;;23.00;48.30;;;;;;5057075;28;20071;-86
2021/06/01 17:49:52;;;;;;;3.38;1.83;;;23.00;48.80;;;;;;5055871;28;20405;-86
2021/06/01 17:52:29;;;;;;;3.35;1.70;;;23.00;48.40;;;;;;5056556;28;20032;-87
2021/06/01 17:55:00;;;;;;;4.07;1.77;;;22.90;48.70;;;;;;5058397;28;20021;-86
2021/06/01 17:57:27;;;;;;;5.05;1.90;;;22.90;48.60;;;;;;5058622;28;20025;-86
2021/06/01 17:59:55;;;;;;;3.17;1.77;;;22.90;48.30;;;;;;5055180;28;20284;-86
2021/06/01 18:02:21;;;;;;;3.10;1.75;;;22.80;48.00;;;;;;5056479;28;20021;-86
2021/06/01 18:04:52;;;;;;;5.68;1.70;;;22.80;48.00;;;;;;5056018;28;20111;-86
2021/06/01 18:07:31;;;;;;;3.97;2.22;;;22.80;48.10;;;;;;5057067;28;20474;-86
2021/06/01 19:52:20;;;;;;;2.33;1.55;;;21.70;48.30;;;;;;5055836;28;20488;-85
2021/06/01 19:54:47;;;;;;;2.88;1.88;;;21.70;49.30;;;;;;5054299;28;20024;-85
2021/06/01 19:57:13;;;;;;;3.60;1.70;;;21.60;48.90;;;;;;5054160;28;20047;-84
2021/06/01 19:59:40;;;;;;;3.13;1.60;;;21.60;49.20;;;;;;5053865;28;20511;-85
2021/06/01 20:02:06;;;;;;;3.53;1.70;;;21.60;49.40;;;;;;5055494;28;20013;-85
2021/06/01 20:04:32;;;;;;;2.42;1.80;;;21.60;49.10;;;;;;5054282;28;20112;-85
2021/06/01 20:06:58;;;;;;;2.47;1.70;;;21.50;49.30;;;;;;5054250;28;20564;-85
2021/06/01 20:09:25;;;;;;;4.55;2.13;;;21.50;49.40;;;;;;5053773;28;20389;-85
2021/06/01 20:11:51;;;;;;;2.85;1.83;;;21.50;49.70;;;;;;5054133;28;20124;-85
2021/06/01 20:14:17;;;;;;;5.40;2.10;;;21.50;49.80;;;;;;5054326;28;20025;-85
2021/06/01 20:16:49;;;;;;;4.22;1.85;;;21.40;50.10;;;;;;5054250;28;20111;-85
2021/06/01 20:19:17;;;;;;;2.92;1.70;;;21.40;50.10;;;;;;5053778;28;20028;-85
2021/06/01 20:21:47;;;;;;;4.20;1.88;;;21.40;50.50;;;;;;5053965;28;20374;-85